createdAt,value
2023-06-13T00:00:34.727Z,27.59
2023-06-13T00:02:40.560Z,27.69
2023-06-13T00:04:46.138Z,27.77
2023-06-13T00:06:52.227Z,27.69
2023-06-13T00:08:57.818Z,27.73
2023-06-13T00:11:03.567Z,27.6
2023-06-13T00:13:09.217Z,28.02
2023-06-13T00:15:14.960Z,27.74
2023-06-13T00:17:20.677Z,28.06
2023-06-13T00:19:26.529Z,28.09
2023-06-13T00:21:32.313Z,27.79
2023-06-13T00:23:37.898Z,28.02
2023-06-13T00:25:43.385Z,27.99
2023-06-13T00:27:49.041Z,28.17
2023-06-13T00:29:54.790Z,28.13
2023-06-13T00:32:00.430Z,28.19
2023-06-13T00:34:06.075Z,28.21
2023-06-13T00:36:11.731Z,28.4
2023-06-13T00:38:17.435Z,28.53
2023-06-13T00:40:23.118Z,28.55
2023-06-13T00:42:28.752Z,28.8
2023-06-13T00:44:34.310Z,29.06
2023-06-13T00:46:40.117Z,29.05
2023-06-13T00:48:45.595Z,28.9
2023-06-13T00:50:51.128Z,29
2023-06-13T00:52:56.692Z,28.97
2023-06-13T00:55:02.424Z,28.76
2023-06-13T00:57:08.172Z,28.68
2023-06-13T00:59:13.859Z,28.64
2023-06-13T01:01:19.565Z,28.57
2023-06-13T01:03:25.310Z,28.52
2023-06-13T01:05:31.167Z,28.64
2023-06-13T01:07:36.918Z,28.68
2023-06-13T01:09:42.662Z,28.74
2023-06-13T01:11:48.416Z,28.63
2023-06-13T01:13:53.978Z,28.6
2023-06-13T01:15:59.548Z,28.64
2023-06-13T01:18:05.476Z,28.46
2023-06-13T01:20:11.024Z,28.75
2023-06-13T01:22:16.779Z,28.78
2023-06-13T01:24:22.964Z,28.67
2023-06-13T01:26:28.518Z,28.82
2023-06-13T01:28:34.186Z,28.83
2023-06-13T01:30:39.727Z,28.91
2023-06-13T01:32:45.630Z,28.94
2023-06-13T01:34:51.361Z,28.92
2023-06-13T01:36:56.866Z,28.43
2023-06-13T01:39:02.507Z,28.86
2023-06-13T01:41:08.148Z,28.91
2023-06-13T01:43:13.664Z,28.86
2023-06-13T01:45:19.215Z,28.85
2023-06-13T01:47:25.212Z,28.83
2023-06-13T01:49:30.849Z,28.98
2023-06-13T01:51:36.497Z,28.96
2023-06-13T01:53:42.022Z,28.78
2023-06-13T01:55:47.555Z,28.99
2023-06-13T01:57:52.825Z,29.02
2023-06-13T01:59:58.344Z,29.03
2023-06-13T02:02:03.626Z,29.04
2023-06-13T02:04:09.276Z,29.28
2023-06-13T02:06:14.693Z,29.16
2023-06-13T02:08:20.198Z,29.13
2023-06-13T02:10:25.633Z,29.36
2023-06-13T02:12:30.980Z,29.19
2023-06-13T02:14:36.512Z,29.31
2023-06-13T02:16:42.003Z,29.22
2023-06-13T02:18:47.507Z,29.16
2023-06-13T02:20:52.815Z,29.32
2023-06-13T02:22:58.060Z,29.46
2023-06-13T02:25:05.680Z,29.47
2023-06-13T02:27:10.961Z,29.49
2023-06-13T02:29:16.443Z,29.45
2023-06-13T02:31:21.884Z,29.58
2023-06-13T02:33:27.326Z,29.67
2023-06-13T02:35:32.668Z,29.61
2023-06-13T02:37:38.094Z,29.71
2023-06-13T02:39:43.562Z,29.55
2023-06-13T02:41:48.898Z,29.32
2023-06-13T02:43:54.317Z,29.76
2023-06-13T02:45:59.598Z,29.8
2023-06-13T02:48:05.350Z,29.61
2023-06-13T02:50:10.801Z,29.71
2023-06-13T02:52:16.386Z,29.69
2023-06-13T02:54:21.716Z,29.63
2023-06-13T02:56:27.063Z,29.8
2023-06-13T02:58:32.343Z,29.75
2023-06-13T03:00:37.739Z,29.79
2023-06-13T03:02:43.457Z,29.87
2023-06-13T03:04:48.933Z,29.84
2023-06-13T03:06:54.377Z,29.65
2023-06-13T03:08:59.817Z,29.9
2023-06-13T03:11:05.093Z,29.87
2023-06-13T03:13:10.537Z,29.77
2023-06-13T03:15:16.042Z,29.92
2023-06-13T03:17:21.817Z,29.89
2023-06-13T03:19:27.315Z,29.96
2023-06-13T03:21:32.762Z,29.89
2023-06-13T03:23:38.331Z,30.01
2023-06-13T03:25:43.682Z,30.02
2023-06-13T03:27:49.096Z,30.05
2023-06-13T03:29:54.844Z,30.08
2023-06-13T03:32:00.235Z,29.99
2023-06-13T03:34:05.711Z,30.06
2023-06-13T03:36:11.006Z,30.12
2023-06-13T03:38:16.374Z,30.19
2023-06-13T03:40:22.025Z,30.19
2023-06-13T03:42:27.682Z,30.06
2023-06-13T03:44:33.166Z,30.18
2023-06-13T03:46:38.454Z,30.18
2023-06-13T03:48:44.513Z,30.32
2023-06-13T03:50:50.065Z,30.15
2023-06-13T03:52:55.434Z,30.3
2023-06-13T03:55:00.827Z,30.36
2023-06-13T03:57:06.380Z,30.3
2023-06-13T03:59:11.658Z,30.2
2023-06-13T04:01:17.260Z,30.15
2023-06-13T04:03:23.020Z,30.27
2023-06-13T04:05:28.501Z,30.32
2023-06-13T04:07:33.985Z,30.32
2023-06-13T04:09:39.427Z,30.41
2023-06-13T04:11:44.730Z,30.52
2023-06-13T04:13:50.030Z,30.39
2023-06-13T04:15:55.286Z,30.53
2023-06-13T04:18:00.862Z,30.51
2023-06-13T04:20:06.429Z,30.82
2023-06-13T04:22:11.877Z,30.58
2023-06-13T04:24:17.560Z,30.52
2023-06-13T04:26:23.053Z,30.79
2023-06-13T04:28:28.589Z,30.64
2023-06-13T04:30:33.862Z,30.67
2023-06-13T04:32:39.363Z,30.63
2023-06-13T04:34:44.913Z,30.77
2023-06-13T04:36:50.306Z,30.65
2023-06-13T04:38:55.669Z,30.77
2023-06-13T04:41:01.127Z,30.79
2023-06-13T04:43:06.845Z,30.74
2023-06-13T04:45:12.086Z,30.7
2023-06-13T04:47:17.555Z,30.81
2023-06-13T04:49:23.201Z,30.82
2023-06-13T04:51:28.641Z,30.92
2023-06-13T04:53:33.951Z,31.04
2023-06-13T04:55:39.518Z,31.08
2023-06-13T04:57:45.063Z,31.01
2023-06-13T04:59:50.433Z,31.06
2023-06-13T05:01:55.934Z,30.84
2023-06-13T05:04:05.107Z,30.83
2023-06-13T05:06:10.609Z,30.92
2023-06-13T05:08:16.053Z,30.88
2023-06-13T05:10:22.740Z,30.87
2023-06-13T05:12:28.270Z,30.91
2023-06-13T05:14:33.578Z,30.98
2023-06-13T05:16:38.957Z,30.78
2023-06-13T05:18:44.344Z,31.09
2023-06-13T05:20:49.747Z,31.09
2023-06-13T05:22:55.168Z,31.18
2023-06-13T05:25:00.891Z,31.05
2023-06-13T05:27:06.486Z,30.94
2023-06-13T05:29:11.777Z,31.13
2023-06-13T05:31:17.663Z,31.06
2023-06-13T05:33:23.191Z,31.13
2023-06-13T05:35:31.290Z,31.26
2023-06-13T05:37:40.281Z,31.31
2023-06-13T05:39:45.682Z,31.48
2023-06-13T05:41:50.934Z,31.21
2023-06-13T05:43:56.434Z,31.3
2023-06-13T05:46:01.865Z,31.47
2023-06-13T05:48:07.282Z,31.74
2023-06-13T05:50:13.020Z,32.23
2023-06-13T05:52:18.533Z,32.1
2023-06-13T05:54:24.155Z,32.45
2023-06-13T05:56:29.634Z,32.67
2023-06-13T05:58:34.900Z,32.74
2023-06-13T06:00:40.887Z,32.49
2023-06-13T06:02:46.790Z,32.56
2023-06-13T06:04:52.317Z,32.67
2023-06-13T06:06:57.710Z,32.79
2023-06-13T06:09:03.113Z,33.14
2023-06-13T06:11:08.435Z,33.35
2023-06-13T06:13:13.924Z,33.37
2023-06-13T06:15:19.130Z,33.44
2023-06-13T06:17:24.876Z,33.56
2023-06-13T06:19:30.450Z,33.59
2023-06-13T06:21:35.985Z,33.67
2023-06-13T06:23:41.704Z,33.79
2023-06-13T06:25:47.283Z,33.85
2023-06-13T06:27:52.716Z,33.97
2023-06-13T06:29:58.172Z,33.81
2023-06-13T06:32:03.699Z,33.55
2023-06-13T06:34:09.040Z,33.52
2023-06-13T06:36:14.492Z,33.38
2023-06-13T06:38:19.826Z,33.54
2023-06-13T06:40:25.280Z,33.45
2023-06-13T06:42:30.489Z,33.31
2023-06-13T06:44:47.736Z,33.19
2023-06-13T06:46:53.092Z,32.97
2023-06-13T06:48:58.344Z,32.63
2023-06-13T06:51:03.723Z,32.53
2023-06-13T06:53:08.952Z,32.51
2023-06-13T06:55:14.121Z,32.25
2023-06-13T06:57:23.543Z,32.21
2023-06-13T06:59:28.914Z,32.2
2023-06-13T07:01:34.334Z,32.15
2023-06-13T07:03:39.904Z,32.15
2023-06-13T07:05:45.390Z,32.19
2023-06-13T07:07:50.939Z,32.21
2023-06-13T07:09:56.274Z,32.37
2023-06-13T07:12:01.721Z,32.21
2023-06-13T07:14:07.164Z,32.33
2023-06-13T07:16:12.712Z,32.55
2023-06-13T07:18:18.198Z,32.73
2023-06-13T07:20:23.578Z,32.92
2023-06-13T07:22:29.273Z,32.72
2023-06-13T07:24:34.859Z,32.67
2023-06-13T07:26:40.203Z,32.71
2023-06-13T07:28:45.552Z,32.59
2023-06-13T07:30:51.204Z,32.21
2023-06-13T07:33:01.097Z,32.14
2023-06-13T07:35:09.952Z,32.14
2023-06-13T07:37:15.203Z,32.11
2023-06-13T07:39:20.646Z,32.12
2023-06-13T07:41:26.104Z,32.11
2023-06-13T07:43:31.510Z,32.11
2023-06-13T07:45:37.266Z,32.02
2023-06-13T07:47:42.829Z,31.71
2023-06-13T07:49:48.244Z,31.5
2023-06-13T07:51:53.692Z,31.52
2023-06-13T07:53:59.105Z,31.49
2023-06-13T07:56:04.561Z,31.53
2023-06-13T07:58:12.155Z,31.51
2023-06-13T08:00:18.729Z,31.43
2023-06-13T08:02:24.468Z,31.36
2023-06-13T08:04:55.730Z,31.2
2023-06-13T08:07:01.725Z,31.31
2023-06-13T08:09:07.241Z,31.31
2023-06-13T08:11:12.757Z,31.29
2023-06-13T08:13:18.135Z,31.25
2023-06-13T08:15:23.557Z,31.07
2023-06-13T08:17:28.919Z,30.99
2023-06-13T08:19:37.466Z,30.9
2023-06-13T08:21:42.892Z,30.98
2023-06-13T08:23:48.366Z,30.79
2023-06-13T08:25:54.121Z,30.82
2023-06-13T08:27:59.659Z,30.86
2023-06-13T08:30:05.196Z,30.94
2023-06-13T08:32:10.861Z,30.87
2023-06-13T08:34:19.038Z,30.86
2023-06-13T08:36:35.085Z,30.81
2023-06-13T08:38:54.442Z,30.62
2023-06-13T08:41:00.154Z,30.57
2023-06-13T08:43:05.552Z,30.55
2023-06-13T08:45:11.387Z,30.38
2023-06-13T08:47:40.463Z,30.22
2023-06-13T08:49:45.936Z,30.09
2023-06-13T08:51:51.382Z,30.14
2023-06-13T08:53:56.855Z,30.13
2023-06-13T08:56:08.693Z,29.81
2023-06-13T08:58:14.470Z,29.94
2023-06-13T09:00:19.939Z,29.87
2023-06-13T09:02:29.795Z,29.86
2023-06-13T09:04:35.377Z,29.52
2023-06-13T09:06:41.069Z,29.4
2023-06-13T09:08:46.717Z,29.26
2023-06-13T09:10:52.374Z,29.23
2023-06-13T09:12:57.802Z,29.11
2023-06-13T09:15:03.301Z,29.11
2023-06-13T09:17:09.401Z,29.07
2023-06-13T09:19:14.628Z,29.2
2023-06-13T09:21:22.450Z,29.1
2023-06-13T09:23:28.633Z,29.15
2023-06-13T09:25:34.133Z,29.29
2023-06-13T09:27:39.656Z,29.17
2023-06-13T09:29:45.003Z,29.54
2023-06-13T09:31:50.550Z,29.43
2023-06-13T09:33:55.950Z,29.29
2023-06-13T09:56:03.997Z,29.02
2023-06-13T09:58:32.813Z,28.97
2023-06-13T10:00:39.186Z,29.18
2023-06-13T10:02:44.684Z,29.2
2023-06-13T10:04:50.209Z,29.12
2023-06-13T10:06:55.793Z,29.2
2023-06-13T10:09:01.237Z,29.25
2023-06-13T10:11:06.771Z,29.36
2023-06-13T10:13:12.142Z,29.56
2023-06-13T10:15:18.652Z,29.38
2023-06-13T10:17:24.452Z,29.42
2023-06-13T10:19:29.856Z,29.58
2023-06-13T10:21:53.738Z,29.64
2023-06-13T10:23:59.181Z,29.66
2023-06-13T10:26:07.692Z,29.68
2023-06-13T10:28:12.985Z,29.43
2023-06-13T10:30:19.008Z,29.57
2023-06-13T10:32:24.429Z,29.53
2023-06-13T10:34:29.813Z,29.37
2023-06-13T10:36:35.323Z,29.21
2023-06-13T10:38:40.774Z,29.28
2023-06-13T10:40:46.282Z,29.28
2023-06-13T10:42:52.039Z,29.15
2023-06-13T10:44:57.963Z,29.57
2023-06-13T10:47:03.226Z,29.68
2023-06-13T10:49:08.681Z,28.93
2023-06-13T10:51:14.113Z,28.94
2023-06-13T10:53:19.586Z,29.52
2023-06-13T10:55:24.987Z,29.51
2023-06-13T10:57:30.300Z,29.35
2023-06-13T10:59:36.019Z,29.38
2023-06-13T11:01:41.966Z,29.46
2023-06-13T11:03:47.584Z,29.44
2023-06-13T11:05:53.407Z,29.24
2023-06-13T11:07:58.695Z,29.17
2023-06-13T11:10:04.094Z,29.33
2023-06-13T11:12:09.504Z,29.47
2023-06-13T11:14:14.909Z,29.42
2023-06-13T11:16:20.123Z,29.29
2023-06-13T11:18:25.878Z,29.4
2023-06-13T11:20:34.371Z,29.49
2023-06-13T11:22:39.926Z,29.49
2023-06-13T11:24:45.534Z,29.52
2023-06-13T11:26:50.954Z,29.65
2023-06-13T11:28:56.474Z,29.61
2023-06-13T11:31:02.011Z,29.84
2023-06-13T11:33:07.667Z,30.02
2023-06-13T11:35:13.358Z,29.52
2023-06-13T11:37:18.781Z,29.43
2023-06-13T11:39:24.448Z,29.55
2023-06-13T11:41:30.113Z,28.93
2023-06-13T11:43:35.551Z,29.4
2023-06-13T11:45:40.950Z,30.37
2023-06-13T11:47:46.662Z,29.85
2023-06-13T11:49:52.174Z,29.24
2023-06-13T11:51:57.511Z,28.93
2023-06-13T11:54:03.051Z,28.87
2023-06-13T11:56:08.587Z,28.99
2023-06-13T11:58:14.045Z,29.39
2023-06-13T12:00:20.965Z,29.22
2023-06-13T12:02:27.393Z,28.92
2023-06-13T12:04:33.229Z,28.49
2023-06-13T12:06:38.639Z,29.3
2023-06-13T12:08:43.960Z,28.28
2023-06-13T12:10:49.537Z,29.49
2023-06-13T12:12:55.074Z,29.14
2023-06-13T12:15:00.461Z,29.38
2023-06-13T12:17:06.134Z,29.4
2023-06-13T12:19:11.912Z,29.5
2023-06-13T12:21:17.461Z,29.44
2023-06-13T12:23:25.558Z,29.77
2023-06-13T12:25:31.058Z,29.88
2023-06-13T12:27:36.547Z,29.69
2023-06-13T12:29:41.965Z,29.73
2023-06-13T12:31:47.962Z,29.57
2023-06-13T12:33:53.588Z,29.5
2023-06-13T12:35:59.021Z,29.44
2023-06-13T12:38:04.669Z,28.92
2023-06-13T12:40:09.918Z,29.13
2023-06-13T12:42:15.221Z,29.12
2023-06-13T12:44:20.699Z,28.94
2023-06-13T12:46:26.153Z,28.92
2023-06-13T12:48:31.351Z,28.83
2023-06-13T12:50:36.594Z,28.71
2023-06-13T12:52:41.911Z,28.41
2023-06-13T12:54:47.218Z,28.49
2023-06-13T12:56:52.859Z,28.47
2023-06-13T12:58:59.153Z,28.4
2023-06-13T13:01:04.466Z,28.35
2023-06-13T13:03:10.153Z,28.09
2023-06-13T13:05:30.244Z,28.57
2023-06-13T13:07:35.883Z,28.65
2023-06-13T13:09:41.790Z,28.71
2023-06-13T13:11:47.493Z,28.77
2023-06-13T13:13:53.405Z,28.78
2023-06-13T13:15:59.119Z,28.97
2023-06-13T13:18:04.990Z,28.94
2023-06-13T13:20:10.718Z,29
2023-06-13T13:22:16.330Z,28.96
2023-06-13T13:24:22.146Z,28.98
2023-06-13T13:26:27.834Z,29.23
2023-06-13T13:28:33.602Z,29.26
2023-06-13T13:31:02.770Z,29.33
2023-06-13T13:33:08.760Z,29.41
2023-06-13T13:35:14.841Z,29.44
2023-06-13T13:37:20.669Z,29.31
2023-06-13T13:39:26.878Z,29.2
2023-06-13T13:41:32.533Z,29.09
2023-06-13T13:43:38.231Z,29.06
2023-06-13T13:45:43.717Z,29.22
2023-06-13T13:47:49.694Z,29.45
2023-06-13T13:49:55.612Z,29.27
2023-06-13T13:52:01.082Z,28.96
2023-06-13T13:54:06.582Z,29.4
2023-06-13T13:56:12.462Z,29.23
2023-06-13T13:58:18.259Z,29.13
2023-06-13T14:00:23.898Z,29.14
2023-06-13T14:02:29.587Z,29.21
2023-06-13T14:04:35.450Z,29.08
2023-06-13T14:06:40.980Z,28.76
2023-06-13T14:08:46.646Z,28.83
2023-06-13T14:10:52.281Z,29.06
2023-06-13T14:12:57.923Z,29.78
2023-06-13T14:15:03.779Z,29.49
2023-06-13T14:17:09.401Z,29.49
2023-06-13T14:19:15.064Z,29.33
2023-06-13T14:21:20.765Z,29.42
2023-06-13T14:23:26.374Z,29.29
2023-06-13T14:25:32.244Z,29.54
2023-06-13T14:27:37.846Z,29.34
2023-06-13T14:29:43.505Z,29.2
2023-06-13T14:31:49.261Z,29.16
2023-06-13T14:33:55.090Z,29.26
2023-06-13T14:36:00.742Z,28.86
2023-06-13T14:38:06.390Z,29.21
2023-06-13T14:40:12.037Z,29.17
2023-06-13T14:42:17.533Z,28.97
2023-06-13T14:44:23.120Z,29
2023-06-13T14:46:29.100Z,28.83
2023-06-13T14:48:34.715Z,28.82
2023-06-13T14:50:40.239Z,28.86
2023-06-13T14:52:46.007Z,28.7
2023-06-13T14:54:51.540Z,28.87
2023-06-13T14:56:57.292Z,28.82
2023-06-13T14:59:03.041Z,29.07
2023-06-13T15:01:08.802Z,28.85
2023-06-13T15:03:14.431Z,28.96
2023-06-13T15:05:20.902Z,28.83
2023-06-13T15:07:26.637Z,29.01
2023-06-13T15:09:34.761Z,29.21
2023-06-13T15:11:40.390Z,29.31
2023-06-13T15:13:46.134Z,29.27
2023-06-13T15:15:51.923Z,29.12
2023-06-13T15:17:57.642Z,29.12
2023-06-13T15:20:03.343Z,29.03
2023-06-13T15:22:09.035Z,28.89
2023-06-13T15:24:14.959Z,28.85
2023-06-13T15:26:22.313Z,28.73
2023-06-13T15:28:27.914Z,28.48
2023-06-13T15:30:33.559Z,28.15
2023-06-13T15:32:42.193Z,28.17
2023-06-13T15:34:48.030Z,28.47
2023-06-13T15:36:53.589Z,28.65
2023-06-13T15:38:59.122Z,28.49
2023-06-13T15:41:04.795Z,28.14
2023-06-13T15:43:10.435Z,28.13
2023-06-13T15:45:16.088Z,28.12
2023-06-13T15:47:22.087Z,28.21
2023-06-13T15:49:27.844Z,28.18
2023-06-13T15:51:33.608Z,28.28
2023-06-13T15:53:39.336Z,28.11
2023-06-13T15:55:44.980Z,27.99
2023-06-13T15:57:52.569Z,28.29
2023-06-13T15:59:58.472Z,28.31
2023-06-13T16:02:04.071Z,28.41
2023-06-13T16:04:09.860Z,28.28
2023-06-13T16:06:15.526Z,28.32
2023-06-13T16:08:21.001Z,28.36
2023-06-13T16:10:26.628Z,28.62
2023-06-13T16:12:32.331Z,28.76
2023-06-13T16:14:37.940Z,28.83
2023-06-13T16:16:43.467Z,29.11
2023-06-13T16:18:49.480Z,29.32
2023-06-13T16:20:55.006Z,29.89
2023-06-13T16:23:00.630Z,30.16
2023-06-13T16:25:06.274Z,30.33
2023-06-13T16:27:11.787Z,30.57
2023-06-13T16:29:17.509Z,30.38
2023-06-13T16:31:23.440Z,30.82
2023-06-13T16:33:29.160Z,30.73
2023-06-13T16:35:34.738Z,30.03
2023-06-13T16:37:40.701Z,30.02
2023-06-13T16:39:46.430Z,30.36
2023-06-13T16:41:51.945Z,30.85
2023-06-13T16:43:57.592Z,30.93
2023-06-13T16:46:03.299Z,30.92
2023-06-13T16:48:09.206Z,31.38
2023-06-13T16:50:15.976Z,30.24
2023-06-13T16:52:21.699Z,31.5
2023-06-13T16:54:27.322Z,31.09
2023-06-13T16:56:32.788Z,32.31
2023-06-13T16:58:38.439Z,31.17
2023-06-13T17:00:44.099Z,31.25
2023-06-13T17:02:49.950Z,30.72
2023-06-13T17:04:55.577Z,32.01
2023-06-13T17:07:01.215Z,32.91
2023-06-13T17:09:06.766Z,32.73
2023-06-13T17:11:12.289Z,32.62
2023-06-13T17:13:18.194Z,31.86
2023-06-13T17:15:23.804Z,33.13
2023-06-13T17:17:29.316Z,33.37
2023-06-13T17:19:35.007Z,32.63
2023-06-13T17:21:40.633Z,32.32
2023-06-13T17:23:46.423Z,32.16
2023-06-13T17:25:52.030Z,32.55
2023-06-13T17:27:57.775Z,31.51
2023-06-13T17:30:03.634Z,32.14
2023-06-13T17:32:09.518Z,32.47
2023-06-13T17:34:15.431Z,32.37
2023-06-13T17:36:20.993Z,32.31
2023-06-13T17:38:26.821Z,32.47
2023-06-13T17:40:32.406Z,31.62
2023-06-13T17:42:37.869Z,31.83
2023-06-13T17:44:43.285Z,31.6
2023-06-13T17:46:48.671Z,31.78
2023-06-13T17:48:54.673Z,31.93
2023-06-13T17:51:00.043Z,32.03
2023-06-13T17:53:05.441Z,32.35
2023-06-13T17:55:10.834Z,32.31
2023-06-13T17:57:16.504Z,32.35
2023-06-13T17:59:22.243Z,32.36
2023-06-13T18:01:28.041Z,32.66
2023-06-13T18:03:33.847Z,32.62
2023-06-13T18:05:39.444Z,31.26
2023-06-13T18:07:45.035Z,32.49
2023-06-13T18:09:50.578Z,31.54
2023-06-13T18:12:01.290Z,31.69
2023-06-13T18:14:09.499Z,32.42
2023-06-13T18:16:15.413Z,32.1
2023-06-13T18:18:21.036Z,31.85
2023-06-13T18:20:26.685Z,31.7
2023-06-13T18:22:32.053Z,31.94
2023-06-13T18:24:37.533Z,32.35
2023-06-13T18:26:42.921Z,32.39
2023-06-13T18:28:48.280Z,32.58
2023-06-13T18:30:53.715Z,32.92
2023-06-13T18:32:59.183Z,32.96
2023-06-13T18:35:04.630Z,33.05
2023-06-13T18:37:10.337Z,33.31
2023-06-13T18:39:16.155Z,33.17
2023-06-13T18:41:22.012Z,33.2
2023-06-13T18:43:27.759Z,33.32
2023-06-13T18:45:34.080Z,33.62
2023-06-13T18:47:39.790Z,33.87
2023-06-13T18:49:45.529Z,34.19
2023-06-13T18:51:51.252Z,34.22
2023-06-13T18:53:56.615Z,34.55
2023-06-13T18:56:02.132Z,35
2023-06-13T18:58:07.530Z,34.69
2023-06-13T19:00:12.908Z,34.83
2023-06-13T19:02:18.415Z,35.04
2023-06-13T19:04:23.917Z,34.94
2023-06-13T19:06:29.544Z,34.35
2023-06-13T19:08:35.191Z,33.87
2023-06-13T19:10:40.613Z,33.63
2023-06-13T19:12:46.180Z,33.58
2023-06-13T19:14:51.581Z,33.17
2023-06-13T19:16:57.019Z,33.52
2023-06-13T19:19:02.401Z,33.29
2023-06-13T19:21:07.926Z,33.17
2023-06-13T19:23:13.174Z,33.36
2023-06-13T19:25:19.435Z,33.41
2023-06-13T19:27:24.862Z,33.54
2023-06-13T19:29:30.316Z,33.63
2023-06-13T19:31:35.860Z,33.7
2023-06-13T19:33:41.423Z,33.63
2023-06-13T19:35:46.856Z,33.26
2023-06-13T19:37:52.452Z,33.23
2023-06-13T19:39:57.911Z,33.63
2023-06-13T19:42:03.381Z,33.97
2023-06-13T19:44:08.899Z,33.87
2023-06-13T19:46:14.337Z,33.92
2023-06-13T19:48:19.857Z,33.62
2023-06-13T19:50:25.334Z,33.86
2023-06-13T19:52:30.874Z,34.04
2023-06-13T19:54:36.419Z,34.49
2023-06-13T19:56:41.894Z,34.29
2023-06-13T19:58:47.369Z,34.1
2023-06-13T20:00:52.789Z,33.75
2023-06-13T20:02:58.458Z,33.97
2023-06-13T20:05:04.041Z,34.21
2023-06-13T20:07:09.471Z,34.35
2023-06-13T20:09:14.817Z,34.08
2023-06-13T20:11:20.341Z,33.99
2023-06-13T20:13:38.284Z,34.06
2023-06-13T20:15:43.642Z,33.98
2023-06-13T20:17:49.032Z,33.46
2023-06-13T20:19:54.502Z,34.05
2023-06-13T20:22:00.248Z,33.19
2023-06-13T20:24:05.935Z,33.01
2023-06-13T20:26:11.462Z,33.24
2023-06-13T20:28:16.971Z,33.34
2023-06-13T20:30:22.521Z,33.23
2023-06-13T20:32:28.278Z,33.17
2023-06-13T20:34:33.834Z,33.58
2023-06-13T20:36:39.278Z,33.63
2023-06-13T20:38:44.770Z,33.67
2023-06-13T20:40:50.123Z,33.77
2023-06-13T20:42:55.617Z,33.48
2023-06-13T20:45:01.134Z,33.24
2023-06-13T20:47:06.662Z,33.14
2023-06-13T20:49:12.190Z,33.2
2023-06-13T20:51:18.960Z,33.26
2023-06-13T20:53:24.415Z,33.33
2023-06-13T20:55:30.162Z,33.38
2023-06-13T20:57:39.087Z,33.44
2023-06-13T20:59:44.579Z,33.43
2023-06-13T21:01:50.383Z,33.43
2023-06-13T21:03:55.797Z,33.41
2023-06-13T21:06:01.846Z,33.44
2023-06-13T21:08:07.606Z,33.48
2023-06-13T21:10:13.141Z,33.5
2023-06-13T21:12:18.827Z,33.52
2023-06-13T21:14:24.308Z,33.65
2023-06-13T21:16:29.805Z,33.61
2023-06-13T21:18:35.317Z,33.74
2023-06-13T21:20:40.772Z,33.9
2023-06-13T21:22:46.210Z,33.89
2023-06-13T21:24:51.740Z,33.8
2023-06-13T21:26:57.184Z,33.65
2023-06-13T21:29:02.940Z,33.7
2023-06-13T21:31:08.547Z,33.84
2023-06-13T21:33:13.986Z,34.02
2023-06-13T21:35:19.467Z,33.81
2023-06-13T21:37:25.008Z,33.78
2023-06-13T21:39:30.589Z,33.77
2023-06-13T21:41:36.096Z,33.78
2023-06-13T21:43:41.646Z,33.72
2023-06-13T21:45:47.088Z,33.99
2023-06-13T21:47:52.502Z,34.27
2023-06-13T21:49:57.995Z,34.04
2023-06-13T21:52:03.435Z,33.83
2023-06-13T21:54:10.069Z,33.8
2023-06-13T21:56:15.438Z,33.84
2023-06-13T21:58:20.963Z,33.89
2023-06-13T22:00:26.745Z,33.94
2023-06-13T22:02:32.266Z,33.92
2023-06-13T22:04:37.730Z,33.96
2023-06-13T22:06:43.246Z,34.01
2023-06-13T22:08:48.654Z,33.99
2023-06-13T22:10:54.111Z,34.03
2023-06-13T22:12:59.536Z,34.21
2023-06-13T22:15:04.984Z,34.4
2023-06-13T22:17:10.515Z,34.42
2023-06-13T22:19:15.874Z,34.32
2023-06-13T22:21:21.365Z,34.39
2023-06-13T22:23:26.955Z,34.4
2023-06-13T22:25:32.493Z,34.45
2023-06-13T22:27:38.036Z,34.51
2023-06-13T22:29:43.425Z,34.53
2023-06-13T22:31:49.055Z,34.69
2023-06-13T22:33:54.765Z,34.77
2023-06-13T22:36:00.247Z,34.83
2023-06-13T22:38:05.862Z,34.83
2023-06-13T22:40:11.509Z,35.3
2023-06-13T22:42:17.142Z,35.11
2023-06-13T22:44:22.365Z,35.01
2023-06-13T22:46:27.821Z,34.89
2023-06-13T22:48:33.362Z,34.83
2023-06-13T22:50:38.889Z,34.74
2023-06-13T22:52:44.337Z,34.74
2023-06-13T22:54:50.034Z,34.78
2023-06-13T22:56:55.378Z,34.88
2023-06-13T22:59:00.879Z,34.92
2023-06-13T23:01:06.396Z,34.95
2023-06-13T23:03:12.011Z,34.97
2023-06-13T23:05:17.325Z,35.12
2023-06-13T23:07:22.711Z,35.17
2023-06-13T23:09:28.213Z,35.29
2023-06-13T23:11:33.614Z,35.88
2023-06-13T23:13:39.175Z,36.28
2023-06-13T23:15:44.823Z,36.5
2023-06-13T23:17:50.403Z,36.31
2023-06-13T23:19:56.300Z,36.55
2023-06-13T23:22:01.867Z,36.18
2023-06-13T23:24:07.327Z,36.16
2023-06-13T23:26:12.773Z,36.28
2023-06-13T23:28:18.257Z,36.42
2023-06-13T23:30:23.803Z,36.36
2023-06-13T23:32:29.708Z,36.06
2023-06-13T23:34:35.084Z,35.71
2023-06-13T23:36:40.637Z,35.58
2023-06-13T23:38:46.810Z,35.35
2023-06-13T23:40:52.343Z,35.28
2023-06-13T23:42:57.876Z,35.08
2023-06-13T23:45:03.321Z,35.19
2023-06-13T23:47:08.981Z,34.96
2023-06-13T23:49:14.599Z,35
2023-06-13T23:51:20.358Z,35.01
2023-06-13T23:53:26.118Z,34.89
2023-06-13T23:55:31.647Z,34.91
2023-06-13T23:57:37.196Z,34.81
2023-06-13T23:59:42.847Z,34.77
